Aguada Cecilio, Argentina
Current Conditions -  °F | °C
As of 6:00 PM on Monday 24 Nov 2014 (Local Time) from SAZN Reporting Station
Clear Clear  
Wind Chill: 24°   Ceiling: Unl
Heat Index: 24°   Visibility: 6mi
Dew Point: -4°   Wind: 12mph
Humidity: 15%   Direction: 200°SSW
Pressure: 29.88"   Gusts: NA
Location:  40.65°S, 66.96°W
Report Text: SAZN 242100Z 20010KT CAVOK 24/M04 Q1012
Loading
Personal Weather Stations






























Interactive Weather Map New forecast layout! Learn more

10-Day Weather Forecast

Advertisements
Track Severe Weather on mobile